Weather observations for the past three days for
Bowie Municipal Airport
Imperial (Metric)
Date Time (cdt) Wind (mph) Vis. (mi.) Weather Sky Cond. Temperature (ºF) Relative Humidity Wind Chill (°F) Heat Index (°F) Pressure Precipitation (in)
Air Dwpt 6 hour altimeter (in) sea level (mb) 1 hr 3 hr 6 hr
Max. Min.
05 07:55 Calm 10.00 Fair CLR 72.9 68 85% 29.97 0.0
05 07:35 Calm 10.00 Fair CLR 73 68 84% 29.97 0.0
05 07:15 Calm 10.00 Fair CLR 73.2 68 84% 29.97 0.0
05 06:55 Calm 10.00 Fair CLR 73.4 67.8 82.4 73.4 83% 29.96 0.0
05 06:35 Calm 10.00 Fair CLR 73.8 67.6 81% 29.97 0.0
05 06:15 Calm 10.00 Fair CLR 74.7 68 80% 29.96 0.0
05 05:55 Calm 10.00 Fair CLR 74.7 67.8 79% 29.95 0.0
05 05:35 Calm 10.00 Fair CLR 75.6 68 77% 77 29.95 0.0
05 05:15 S 3 10.00 Fair CLR 76.1 68 76% 77 29.94 0.0
05 04:55 SE 5 10.00 Fair CLR 77.2 67.8 73% 79 29.94 0.0
05 04:35 Calm 10.00 Fair CLR 77.2 67.8 73% 79 29.95 0.0
05 04:15 Calm 10.00 Fair CLR 77.9 67.6 71% 80 29.95 0.0
05 03:55 Calm 10.00 Fair CLR 78.4 67.5 69% 81 29.95 0.0
05 03:35 S 3 10.00 Fair CLR 78.8 67.5 68% 81 29.95 0.0
05 03:15 Calm 10.00 Fair CLR 79.7 67.3 66% 82 29.94 0.0
05 02:55 S 3 10.00 Fair CLR 80.1 67.3 65% 82 29.95 0.0
05 02:35 S 3 10.00 Fair CLR 80.8 67.3 64% 83 29.95 0.0
05 02:15 S 3 10.00 Fair CLR 81.5 67.3 62% 84 29.96 0.0
05 01:55 S 3 10.00 Fair CLR 82 67.1 61% 85 29.96 0.0
05 01:35 S 5 10.00 Fair CLR 82 66.7 60% 84 29.96 0.0
05 01:15 S 3 10.00 Fair CLR 82.2 66.6 59% 85 29.95 0.0
05 00:55 SE 3 10.00 Fair CLR 81.1 66.7 95.7 81.1 62% 84 29.95 0.0
05 00:35 SE 3 10.00 Fair CLR 81.9 67.1 61% 84 29.95 0.0
05 00:15 SE 3 10.00 Fair CLR 82.4 66.9 60% 85 29.94 0.0
04 23:55 SE 3 10.00 Fair CLR 82.9 66.9 59% 86 29.94 0.0
04 23:35 SE 3 10.00 Fair CLR 83.7 66.7 57% 86 29.94 0.0
04 23:15 SE 3 10.00 Fair CLR 84.4 66.6 55% 87 29.94 0.0
04 22:55 SE 3 10.00 Fair CLR 85.3 66.2 53% 88 29.93 0.0
04 22:35 SE 6 10.00 Fair CLR 86 66.2 52% 88 29.93 0.0
04 22:15 SE 5 10.00 Fair CLR 86.4 65.8 50% 89 29.93 0.0
04 21:55 SE 3 10.00 Fair CLR 86.4 65.8 50% 89 29.92 0.0
04 21:35 S 3 10.00 Fair CLR 86.9 65.7 49% 89 29.91 0.0
04 21:15 Calm 10.00 Fair CLR 87.6 65.5 48% 90 29.9 0.0
04 20:55 Calm 10.00 Fair CLR 89.4 65.5 45% 92 29.9 0.0
04 20:35 SE 5 10.00 Fair CLR 90.1 65.5 44% 92 29.89 0.0
04 20:15 SE 3 10.00 Fair CLR 91.6 65.8 43% 94 29.89 0.0
04 19:55 SE 7 10.00 Fair CLR 92.7 66.2 42% 96 29.88 0.0
04 19:35 S 7 7.00 Fair CLR 94.3 66.2 40% 98 29.87 0.0
04 19:15 S 8 G 16 10.00 Fair CLR 95.2 64.8 37% 98 29.87 0.0
04 18:55 S 9 10.00 Fair CLR 95.9 64.8 98.6 93.4 36% 98 29.87 0.0
04 18:35 S 9 10.00 Fair CLR 96.3 65.3 36% 99 29.87 0.0
04 18:15 S 10 10.00 Fair CLR 97.2 65.1 35% 100 29.87 0.0
04 17:55 SE 8 G 17 10.00 Fair CLR 96.8 65.3 36% 100 29.87 0.0
04 17:35 SE 10 10.00 Fair CLR 98.2 65.3 34% 102 29.87 0.0
04 17:15 S 8 G 18 10.00 Fair CLR 97.5 65.1 35% 101 29.87 0.0
04 16:55 S 9 G 17 10.00 Fair CLR 97.7 64.4 34% 100 29.88 0.0
04 16:35 S 15 G 20 10.00 Fair CLR 97.7 64 33% 100 29.88 0.0
04 16:15 S 10 G 16 10.00 Fair CLR 97.9 64 33% 100 29.89 0.0
04 15:55 S 13 G 20 10.00 Fair CLR 97.9 63.5 32% 100 29.89 0.0
04 15:35 S 14 G 21 10.00 Fair CLR 97.7 65.1 34% 101 29.9 0.0
04 15:15 S 15 G 21 10.00 Fair CLR 97.5 68 38% 103 29.91 0.0
04 14:55 S 9 G 17 10.00 Fair CLR 97 66.6 37% 101 29.91 0.0
04 14:35 S 14 G 18 10.00 Fair CLR 96.4 66.7 38% 100 29.92 0.0
04 14:15 S 8 G 21 10.00 Fair CLR 96.6 66.7 38% 101 29.92 0.0
04 13:55 S 10 G 20 10.00 Fair CLR 95.4 67.1 40% 99 29.93 0.0
04 13:35 S 13 G 18 10.00 Fair CLR 94.6 66.7 40% 98 29.93 0.0
04 13:15 S 14 G 23 10.00 Fair CLR 94.5 67.1 41% 98 29.94 0.0
04 12:55 S 14 G 21 10.00 Fair CLR 94.1 67.1 94.5 76.6 41% 98 29.95 0.0
04 12:35 S 10 G 17 10.00 Fair CLR 92.5 67.1 43% 96 29.95 0.0
04 12:15 S 12 G 18 10.00 Fair CLR 92.1 67.8 45% 96 29.96 0.0
04 11:55 S 9 G 17 10.00 Fair CLR 90.9 66.7 45% 94 29.97 0.0
04 11:35 S 12 G 18 10.00 Fair CLR 90.3 66.7 46% 93 29.97 0.0
04 11:15 S 13 G 17 10.00 Fair CLR 89.6 67.1 48% 93 29.97 0.0
04 10:55 S 10 G 18 10.00 Fair CLR 87.6 66.7 50% 90 29.97 0.0
04 10:35 S 10 G 18 10.00 Fair CLR 85.6 68.4 56% 89 29.97 0.0
04 10:15 S 14 10.00 Fair CLR 83.8 68.7 60% 87 29.97 0.0
04 09:55 S 7 G 16 10.00 Partly Cloudy SCT085 82.9 69.4 64% 87 29.97 0.0
04 09:35 S 9 10.00 Fair CLR 82.4 69.1 64% 86 29.97 0.0
04 09:15 S 12 G 17 10.00 Fair CLR 80.8 69.6 69% 84 29.96 0.0
04 08:55 S 9 G 17 10.00 Fair CLR 78.8 70.7 76% 82 29.96 0.0
04 08:35 S 7 10.00 Fair CLR 77.4 70.9 81% 79 29.96 0.0
04 08:15 SE 5 10.00 Fair CLR 77 71.6 83% 78 29.95 0.0
04 07:55 S 6 10.00 Fair CLR 77 72 85% 78 29.95 0.0
04 07:35 S 7 10.00 Partly Cloudy SCT100 76.6 72.1 86% 78 29.94 0.0
04 07:15 S 6 10.00 Fair CLR 76.6 72.5 87% 78 29.93 0.0
04 06:55 S 6 10.00 Fair CLR 76.6 72.5 80.6 76.6 87% 78 29.93 0.0
04 06:35 S 7 10.00 Fair CLR 77 72.1 85% 78 29.93 0.0
04 06:15 S 8 10.00 Partly Cloudy SCT100 77 72.1 85% 78 29.93 0.0
04 05:55 S 7 10.00 Mostly Cloudy BKN100 77.2 72 84% 79 29.92 0.0
04 05:35 S 7 10.00 Mostly Cloudy BKN090 77.9 71.8 82% 80 29.92 0.0
04 05:15 S 9 10.00 Overcast OVC080 77.9 71.6 81% 80 29.92 0.0
04 04:55 S 10 10.00 Mostly Cloudy BKN080 BKN090 77.9 71.2 80% 80 29.92 0.0
04 04:35 S 8 10.00 Partly Cloudy SCT080 SCT090 77.9 70.9 79% 80 29.92 0.0
04 04:15 S 7 10.00 Partly Cloudy SCT080 78.1 70.9 79% 80 29.91 0.0
04 03:55 S 9 10.00 Fair CLR 78.1 70.7 78% 80 29.91 0.0
04 03:35 S 9 10.00 Fair CLR 78.8 70.3 75% 81 29.91 0.0
04 03:15 S 10 10.00 Fair CLR 78.8 69.8 74% 81 29.92 0.0
04 02:55 S 9 10.00 Fair CLR 78.8 69.1 72% 81 29.92 0.0
04 02:35 S 10 10.00 Fair CLR 79.2 68.7 70% 82 29.92 0.0
04 02:15 S 12 10.00 Fair CLR 79.2 68.4 70% 82 29.92 0.0
04 01:55 S 9 10.00 Fair CLR 79.5 68.4 69% 82 29.92 0.0
04 01:35 SE 7 10.00 Fair CLR 79.9 68.5 68% 83 29.92 0.0
04 01:15 SE 8 10.00 Fair CLR 80.1 68.9 69% 83 29.93 0.0
04 00:55 S 6 10.00 Fair CLR 80.6 68.9 90.3 80.6 68% 84 29.93 0.0
04 00:35 SE 9 10.00 Partly Cloudy SCT065 80.6 69.3 68% 84 29.92 0.0
04 00:15 S 7 10.00 Mostly Cloudy SCT055 BKN065 80.8 69.4 69% 84 29.93 0.0
03 23:55 SE 6 10.00 Fair CLR 81 69.1 67% 84 29.92 0.0
03 23:15 SE 9 10.00 Fair CLR 82.4 69.1 64% 86 29.92 0.0
03 22:55 SE 7 G 17 10.00 Fair CLR 82.9 69.6 64% 87 29.92 0.0
03 22:35 SE 10 G 16 10.00 Fair CLR 83.3 69.8 64% 87 29.92 0.0
03 22:15 SE 8 10.00 Fair CLR 84 70.3 64% 89 29.91 0.0
03 21:55 SE 8 10.00 Fair CLR 84.2 71.2 65% 89 29.91 0.0
03 21:35 SE 6 10.00 Fair CLR 84.6 71.6 65% 90 29.9 0.0
03 21:15 SE 7 G 16 10.00 Fair CLR 85.1 71.8 64% 91 29.88 0.0
03 20:55 Calm 10.00 Fair CLR 85.1 71.6 64% 91 29.88 0.0
03 20:35 Calm 10.00 Fair CLR 85.1 71.1 63% 90 29.87 0.0
03 20:15 SE 7 10.00 Fair CLR 85.6 70.2 60% 90 29.87 0.0
03 19:55 SE 12 10.00 Fair CLR 86.7 71.1 60% 92 29.86 0.0
03 19:35 SE 12 G 18 10.00 Fair CLR 88.2 70.9 57% 94 29.86 0.0
03 19:15 SE 10 G 18 10.00 Fair CLR 89.1 71.4 56% 96 29.85 0.0
03 18:55 SE 12 G 18 10.00 Fair CLR 90.7 72.1 98.1 90.1 55% 98 29.85 0.0
03 18:35 SE 13 G 21 10.00 Fair CLR 93.4 71.8 50% 101 29.84 0.0
03 18:15 SE 8 G 20 10.00 Fair CLR 95.2 71.4 46% 103 29.84 0.0
03 17:55 SE 9 G 16 10.00 Partly Cloudy SCT070 95.7 69.4 42% 102 29.83 0.0
03 17:35 E 13 G 20 10.00 Partly Cloudy SCT060 96.4 70.2 43% 103 29.83 0.0
03 17:15 SE 5 10.00 Partly Cloudy SCT060 SCT075 96.3 68.7 41% 102 29.83 0.0
03 16:55 SE 9 10.00 Partly Cloudy SCT060 SCT075 97 68.7 40% 103 29.84 0.0
03 16:35 E 6 10.00 Fair CLR 96.6 69.4 41% 103 29.84 0.0
03 16:15 E 8 10.00 Partly Cloudy SCT055 SCT075 96.3 69.8 42% 103 29.85 0.0
03 15:55 SE 9 10.00 Mostly Cloudy BKN065 BKN075 95.5 69.1 42% 101 29.86 0.0
03 15:35 SW 6 10.00 Partly Cloudy SCT060 96.4 69.1 41% 102 29.86 0.0
03 15:15 S 6 10.00 Partly Cloudy SCT050 96.1 70.2 43% 103 29.87 0.0
03 14:55 S 10 10.00 Partly Cloudy SCT050 95.9 70.3 44% 103 29.88 0.0
03 14:35 SE 8 10.00 Partly Cloudy SCT050 95.4 70 44% 102 29.89 0.0
03 14:15 NE 3 10.00 Partly Cloudy SCT050 93.9 69.8 46% 100 29.9 0.0
03 13:55 E 5 10.00 Fair CLR 93.7 69.3 45% 99 29.9 0.0
03 13:35 E 3 10.00 Fair CLR 92.3 68.9 46% 97 29.91 0.0
03 13:15 SE 5 10.00 Fair CLR 91 69.8 50% 97 29.92 0.0
03 12:55 E 8 10.00 Fair CLR 90.3 70.5 90.7 72.3 52% 96 29.93 0.0
03 12:35 S 5 10.00 Fair CLR 90 70.2 52% 96 29.93 0.0
03 12:15 S 9 10.00 Fair CLR 89.2 70.5 54% 95 29.93 0.0
03 11:55 SE 8 10.00 Fair CLR 88.3 70 55% 93 29.94 0.0
03 11:35 SE 8 10.00 Fair CLR 88 70 55% 93 29.95 0.0
03 11:15 S 9 10.00 Fair CLR 86.5 69.6 57% 91 29.94 0.0
03 10:55 SE 6 10.00 Fair CLR 85.6 69.8 59% 90 29.94 0.0
03 10:35 SE 7 10.00 Fair CLR 84.9 70.2 61% 90 29.94 0.0
03 10:15 E 6 10.00 Fair CLR 83.5 70.2 64% 88 29.94 0.0
03 09:55 SE 5 10.00 Fair CLR 82.6 70 66% 87 29.94 0.0
03 09:40 SE 6 10.00 Fair CLR 81.5 70 68% 85 29.95 0.0
03 09:15 SE 5 10.00 Fair CLR 79.3 70 73% 82 29.96 0.0
03 08:55 S 5 10.00 Fair CLR 78.1 70.2 77% 80 29.95 0.0
03 08:35 SE 5 7.00 Fair CLR 76.5 70.3 81% 78 29.96 0.0
03 08:15 E 3 10.00 Fair CLR 74.7 70.7 88% 29.95 0.0
03 07:55 Calm 10.00 Fair CLR 73.2 70.2 90% 29.95 0.0
03 07:35 E 5 10.00 Fair CLR 72.5 69.8 91% 29.95 0.0
03 07:15 SE 3 10.00 Fair CLR 72.5 69.4 90% 29.95 0.0
03 06:55 Calm 10.00 Fair CLR 72.5 69.4 81.7 72.5 90% 29.94 0.0
03 06:35 SE 3 10.00 Fair CLR 72.5 69.3 90% 29.93 0.0
03 05:55 Calm 10.00 Fair CLR 72.7 68.4 86% 29.93 0.0
03 05:35 Calm 10.00 Fair CLR 73 68.4 85% 29.93 0.0
03 05:15 Calm 10.00 Fair CLR 73.4 68.2 84% 29.93 0.0
03 04:55 Calm 10.00 Fair CLR 73.8 68 82% 29.93 0.0
03 04:35 SE 3 10.00 Fair CLR 74.5 68 80% 29.93 0.0
03 04:15 Calm 10.00 Fair CLR 75.2 68 78% 76 29.93 0.0
03 03:55 S 3 10.00 Fair CLR 75.4 67.6 77% 76 29.93 0.0
03 03:35 SE 3 10.00 Fair CLR 76.1 67.6 75% 77 29.93 0.0
03 03:15 S 3 10.00 Fair CLR 76.3 67.3 74% 78 29.93 0.0
03 02:55 SE 3 10.00 Fair CLR 77.9 67.6 71% 80 29.93 0.0
03 02:35 SE 5 10.00 Fair CLR 78.1 67.3 70% 80 29.93 0.0
03 02:15 SE 3 10.00 Fair CLR 79.2 67.3 67% 81 29.94 0.0
03 01:55 SE 5 10.00 Fair CLR 80.4 67.5 65% 83 29.94 0.0
03 01:35 SE 7 10.00 Fair CLR 81 67.3 63% 83 29.94 0.0
03 01:15 SE 7 10.00 Fair CLR 81.1 67.1 62% 84 29.95 0.0
03 00:55 SE 6 10.00 Fair CLR 81.9 66.7 96.8 81.9 60% 84 29.94 0.0
03 00:35 SE 7 10.00 Fair CLR 82.4 66.6 59% 85 29.94 0.0
03 00:15 SE 5 10.00 Fair CLR 82.4 66.4 58% 85 29.94 0.0
02 23:55 SE 3 10.00 Fair CLR 83.3 66.2 56% 86 29.94 0.0
02 23:35 SE 5 10.00 Fair CLR 82.9 65.3 55% 85 29.94 0.0
02 23:15 SE 5 10.00 Fair CLR 83.3 64.9 54% 85 29.94 0.0
02 22:55 SE 3 10.00 Fair CLR 83.7 64.4 52% 85 29.94 0.0
02 22:35 SE 3 10.00 Fair CLR 84.2 64.4 51% 86 29.94 0.0
02 22:15 Calm 10.00 Fair CLR 85.3 64.2 49% 87 29.93 0.0
02 21:55 SE 3 10.00 Fair CLR 86.2 63.9 47% 87 29.93 0.0
02 21:35 Calm 10.00 Fair CLR 87.1 64 46% 88 29.92 0.0
02 21:15 SE 3 10.00 Fair CLR 87.8 64.2 46% 89 29.91 0.0
02 20:55 SE 3 10.00 Fair CLR 88.7 64 44% 90 29.91 0.0
02 20:35 SE 3 10.00 Fair CLR 89.8 64 42% 91 29.91 0.0
02 20:15 SE 5 10.00 Fair CLR 91.6 64.4 41% 93 29.9 0.0
02 19:55 SE 5 10.00 Fair CLR 93.2 64.4 39% 95 29.9 0.0
02 19:35 SE 8 10.00 Fair CLR 94.5 64.4 37% 97 29.9 0.0
02 19:15 SE 9 G 16 10.00 Fair CLR 95.5 64.4 36% 98 29.89 0.0
02 18:55 E 8 10.00 Fair CLR 96.8 63.5 100.4 93.9 33% 99 29.89 0.0
02 18:35 E 7 10.00 Fair CLR 97.5 62.6 32% 99 29.89 0.0
02 18:15 E 10 10.00 Fair CLR 97.9 63.5 32% 100 29.89 0.0
02 17:55 E 7 10.00 Fair CLR 98.2 62.8 31% 100 29.89 0.0
02 17:35 E 5 10.00 Fair CLR 99 62.6 30% 101 29.89 0.0
02 17:15 SE 7 10.00 Fair CLR 99.7 61.9 29% 101 29.9 0.0
02 16:55 E 3 10.00 Fair CLR 99.3 61.7 29% 101 29.9 0.0
02 16:35 E 5 10.00 Fair CLR 98.8 62.8 31% 101 29.9 0.0
02 16:15 SE 7 7.00 Fair CLR 98.4 63.5 32% 101 29.91 0.0
02 15:55 E 6 10.00 Fair CLR 98.2 63.1 32% 100 29.92 0.0
02 15:35 E 9 10.00 Fair CLR 99.1 64 32% 102 29.93 0.0
02 15:15 Calm 10.00 Fair CLR 98.2 63.9 32% 101 29.94 0.0
02 14:55 E 5 7.00 Fair CLR 98.4 64.6 33% 101 29.95 0.0
02 14:35 SE 3 10.00 Partly Cloudy SCT070 97.5 64.8 34% 100 29.96 0.0
02 14:15 Calm 10.00 Partly Cloudy SCT070 94.3 64.8 38% 97 29.97 0.0
02 13:55 SE 5 10.00 Partly Cloudy SCT070 96.6 64.6 35% 99 29.98 0.0
02 13:35 E 7 10.00 Fair CLR 95.2 65.3 37% 98 29.99 0.0
02 13:15 E 8 10.00 Fair CLR 95.9 65.3 37% 99 30 0.0
02 12:55 NE 5 10.00 Fair CLR 96.6 65.8 96.6 73 36% 100 30 0.0
02 12:35 S 3 10.00 Fair CLR 93.2 65.7 40% 96 30.01 0.0
02 12:15 SE 5 10.00 Fair CLR 93.6 65.7 40% 96 30.02 0.0
02 11:55 S 6 10.00 Fair CLR 93.6 66 40% 97 30.02 0.0
02 11:35 S 7 10.00 Fair CLR 92.7 66 42% 96 30.03 0.0
02 11:15 S 6 10.00 Fair CLR 92.5 65.8 42% 95 30.04 0.0
02 10:55 S 7 10.00 Fair CLR 90.5 65.5 44% 93 30.03 0.0
02 10:35 S 7 10.00 Fair CLR 89.6 65.7 45% 92 30.03 0.0
02 10:15 S 7 10.00 Fair CLR 89.2 66.2 47% 92 30.03 0.0
02 09:55 SE 6 10.00 Fair CLR 87.6 66.6 50% 90 30.03 0.0
02 09:35 S 5 10.00 Fair CLR 84.7 68 57% 88 30.03 0.0
02 09:15 S 3 10.00 Fair CLR 82 68.2 63% 85 30.03 0.0
02 08:55 SE 6 10.00 Fair CLR 80.6 68 66% 83 30.03 0.0
02 08:35 SE 6 10.00 Fair CLR 78.6 67.6 69% 81 30.03 0.0
02 08:15 Calm 10.00 Fair CLR 77.2 67.6 73% 79 30.03 0.0
Date Time (cdt) Wind (mph) Vis. (mi.) Weather Sky Cond. Air Dwpt Max. Min. Relative Humidity Wind Chill (°F) Heat Index (°F) altimeter (in) sea level (mb) 1 hr 3 hr 6 hr
6 hour
Temperature (ºF) Pressure Precipitation (in)